Time;durP1;ratioP1;P1;durP2;ratioP2;P2;SDS_P1;SDS_P2;PMS_P1;PMS_P2;Temp;Humidity;BMP_temperature;BMP_pressure;BME280_temperature;BME280_humidity;BME280_pressure;Samples;Min_cycle;Max_cycle;Signal;HPM_P1;HPM_P2
2023/05/10 00:02:18;;;;;;;21.05;5.78;;;;;;;11.51;100.00;98474.75;4872443;29;20111;-88
2023/05/10 00:05:02;;;;;;;20.05;5.53;;;;;;;11.50;100.00;98464.47;4874158;29;20138;-85
2023/05/10 00:07:46;;;;;;;18.52;6.22;;;;;;;11.43;100.00;98467.94;4868838;29;20084;-87
2023/05/10 00:10:30;;;;;;;17.42;4.90;;;;;;;11.57;100.00;98465.22;4876641;29;20560;-90
2023/05/10 00:13:15;;;;;;;14.80;4.97;;;;;;;11.47;100.00;98475.41;4869016;29;20048;-87
2023/05/10 00:15:59;;;;;;;13.68;4.35;;;;;;;11.42;100.00;98471.59;4868313;29;20460;-86
2023/05/10 00:18:43;;;;;;;11.63;4.18;;;;;;;11.66;100.00;98478.91;4867556;29;20407;-86
2023/05/10 00:21:28;;;;;;;12.82;3.70;;;;;;;11.64;100.00;98470.44;4869446;29;20454;-87
2023/05/10 00:24:12;;;;;;;16.27;5.32;;;;;;;11.60;100.00;98496.31;4867698;29;20060;-84
2023/05/10 00:26:56;;;;;;;16.67;4.88;;;;;;;11.62;100.00;98477.72;4872277;29;20168;-87
2023/05/10 00:29:40;;;;;;;16.48;5.28;;;;;;;11.63;100.00;98484.59;4868805;29;20076;-85
2023/05/10 00:32:24;;;;;;;12.63;4.95;;;;;;;11.67;100.00;98480.50;4871235;29;20052;-87
2023/05/10 00:35:08;;;;;;;14.98;4.93;;;;;;;11.69;100.00;98481.91;4871830;29;20043;-84
2023/05/10 00:37:52;;;;;;;18.25;4.93;;;;;;;11.65;100.00;98464.16;4865309;29;20174;-86
2023/05/10 00:40:37;;;;;;;15.32;5.68;;;;;;;11.56;100.00;98485.44;4868818;29;20193;-85
2023/05/10 00:43:21;;;;;;;15.57;5.32;;;;;;;11.74;100.00;98468.09;4870569;29;20125;-84
2023/05/10 00:46:06;;;;;;;17.02;5.47;;;;;;;11.69;100.00;98483.72;4869538;29;20060;-84
2023/05/10 00:48:50;;;;;;;17.80;6.28;;;;;;;11.77;100.00;98480.03;4867717;29;20052;-86
2023/05/10 00:51:35;;;;;;;21.45;6.25;;;;;;;11.98;100.00;98482.25;4869724;29;20060;-86
2023/05/10 00:54:19;;;;;;;20.05;5.35;;;;;;;11.92;100.00;98471.78;4868522;29;20128;-90
2023/05/10 00:57:03;;;;;;;18.77;5.18;;;;;;;11.82;100.00;98451.25;4866980;29;20060;-85
2023/05/10 00:59:48;;;;;;;18.73;6.03;;;;;;;12.05;100.00;98471.69;4868403;29;20101;-87
2023/05/10 01:02:33;;;;;;;20.05;4.68;;;;;;;11.91;100.00;98464.91;4868158;29;20048;-88
2023/05/10 01:05:17;;;;;;;14.15;4.65;;;;;;;11.94;100.00;98472.38;4873829;29;20097;-85
2023/05/10 01:08:02;;;;;;;19.35;4.50;;;;;;;12.00;100.00;98468.88;4873259;29;20567;-86
2023/05/10 01:10:48;;;;;;;18.17;4.60;;;;;;;12.07;100.00;98472.28;4880376;29;20048;-86
2023/05/10 01:13:39;;;;;;;15.85;4.80;;;;;;;12.03;100.00;98478.19;4875657;29;20044;-84
2023/05/10 01:16:25;;;;;;;17.08;5.15;;;;;;;11.95;100.00;98466.91;4868970;29;20114;-85
2023/05/10 01:19:21;;;;;;;15.82;4.20;;;;;;;11.92;100.00;98472.59;4871166;29;20098;-86
2023/05/10 01:22:24;;;;;;;18.15;4.15;;;;;;;11.83;100.00;98474.69;4874449;29;20044;-88
2023/05/10 01:25:48;;;;;;;20.55;5.40;;;;;;;11.89;100.00;98472.22;4873574;29;20104;-85
2023/05/10 01:28:51;;;;;;;16.93;4.30;;;;;;;12.10;100.00;98479.72;4869985;29;20562;-86
2023/05/10 01:31:54;;;;;;;16.20;4.38;;;;;;;12.18;100.00;98480.44;4871346;29;20664;-87
2023/05/10 01:34:50;;;;;;;18.85;4.97;;;;;;;11.94;100.00;98477.63;4872104;29;20546;-86
2023/05/10 01:37:45;;;;;;;18.30;4.07;;;;;;;12.04;100.00;98485.06;4873466;29;20076;-84
2023/05/10 01:40:37;;;;;;;18.38;4.93;;;;;;;12.09;100.00;98488.63;4873793;29;20157;-85
2023/05/10 01:43:28;;;;;;;15.57;4.55;;;;;;;12.12;100.00;98490.84;4873529;29;20135;-86
2023/05/10 01:46:32;;;;;;;12.40;4.25;;;;;;;11.99;100.00;98491.75;4875939;29;20055;-83
2023/05/10 01:49:30;;;;;;;15.10;4.45;;;;;;;11.95;100.00;98490.56;4869950;29;20098;-85
2023/05/10 01:52:19;;;;;;;16.60;5.30;;;;;;;11.77;100.00;98486.06;4870475;29;20072;-86
2023/05/10 01:55:09;;;;;;;20.55;4.80;;;;;;;11.60;100.00;98477.94;4871656;29;20051;-86
2023/05/10 01:58:03;;;;;;;19.08;4.78;;;;;;;11.67;100.00;98491.81;4871053;29;20048;-85
2023/05/10 02:00:48;;;;;;;;;;;;;;;11.57;100.00;98496.75;4874168;29;20052;-86
2023/05/10 02:03:36;;;;;;;24.55;4.70;;;;;;;11.49;100.00;98487.31;4868112;29;19930;-85
2023/05/10 02:06:22;;;;;;;20.77;5.22;;;;;;;11.39;100.00;98484.34;4872763;29;20053;-87
2023/05/10 02:09:07;;;;;;;26.35;6.05;;;;;;;11.69;100.00;98499.50;4871741;29;20044;-86
2023/05/10 02:11:53;;;;;;;18.95;5.97;;;;;;;11.64;100.00;98496.72;4870528;29;20220;-85
2023/05/10 02:14:41;;;;;;;17.20;6.22;;;;;;;11.69;100.00;98504.75;4869019;29;20053;-85
2023/05/10 02:17:26;;;;;;;18.38;5.40;;;;;;;11.70;100.00;98496.66;4870802;29;20510;-84
2023/05/10 02:20:12;;;;;;;22.25;7.18;;;;;;;11.42;100.00;98502.34;4870566;29;20090;-84
2023/05/10 02:22:57;;;;;;;21.20;6.03;;;;;;;11.57;100.00;98502.81;4870631;29;20097;-84
2023/05/10 02:25:43;;;;;;;22.10;6.43;;;;;;;11.64;100.00;98501.97;4873173;29;20115;-86
2023/05/10 02:28:28;;;;;;;22.02;5.78;;;;;;;11.51;100.00;98493.16;4871096;29;20049;-85
2023/05/10 02:31:13;;;;;;;16.95;6.45;;;;;;;11.36;100.00;98511.06;4869504;29;20486;-85
2023/05/10 02:33:59;;;;;;;19.88;6.53;;;;;;;11.54;100.00;98505.06;4871778;29;20036;-84
2023/05/10 02:36:44;;;;;;;25.40;6.38;;;;;;;11.46;100.00;98510.56;4874591;29;20109;-86
2023/05/10 02:39:31;;;;;;;21.50;5.60;;;;;;;11.32;100.00;98488.84;4867706;29;20044;-84
2023/05/10 02:42:23;;;;;;;30.63;7.72;;;;;;;11.43;100.00;98501.31;4868977;29;20052;-84
2023/05/10 02:45:12;;;;;;;22.52;6.88;;;;;;;11.38;100.00;98498.50;4869414;29;20124;-85
2023/05/10 02:47:56;;;;;;;24.60;6.38;;;;;;;11.38;100.00;98498.50;4869183;29;20104;-85
2023/05/10 02:50:44;;;;;;;22.42;8.00;;;;;;;11.39;100.00;98500.09;4872757;29;20040;-85
2023/05/10 02:53:34;;;;;;;27.60;7.88;;;;;;;11.35;100.00;98501.56;4873890;29;20076;-84
2023/05/10 02:56:31;;;;;;;20.45;6.28;;;;;;;11.38;100.00;98501.13;4872114;29;20047;-84
2023/05/10 02:59:15;;;;;;;20.73;6.70;;;;;;;11.35;100.00;98509.44;4870073;29;20040;-84
2023/05/10 03:02:00;;;;;;;28.85;6.95;;;;;;;11.19;100.00;98501.03;4871825;29;20044;-84
2023/05/10 03:04:44;;;;;;;25.80;7.18;;;;;;;11.29;100.00;98490.88;4870288;29;20060;-85
2023/05/10 03:07:28;;;;;;;28.10;7.70;;;;;;;11.31;100.00;98508.25;4871995;29;21140;-85
2023/05/10 03:10:13;;;;;;;26.55;8.02;;;;;;;11.25;100.00;98497.59;4871465;29;20061;-85
2023/05/10 03:13:28;;;;;;;23.25;7.88;;;;;;;11.18;100.00;98504.69;4867397;29;20047;-87
2023/05/10 03:16:16;;;;;;;24.63;7.30;;;;;;;11.26;100.00;98483.44;4869433;29;20056;-85
2023/05/10 03:19:19;;;;;;;23.77;7.63;;;;;;;11.29;100.00;98495.31;4870174;29;20123;-85
2023/05/10 03:22:08;;;;;;;23.08;7.40;;;;;;;11.24;100.00;98493.34;4868453;29;20048;-85
2023/05/10 03:24:57;;;;;;;20.88;7.38;;;;;;;11.09;100.00;98493.63;4870936;29;20200;-86
2023/05/10 03:27:43;;;;;;;23.30;8.27;;;;;;;11.24;100.00;98493.34;4871664;29;20051;-87
2023/05/10 03:30:28;;;;;;;19.08;7.95;;;;;;;11.07;100.00;98490.41;4866639;29;20044;-86
2023/05/10 03:33:13;;;;;;;22.73;8.18;;;;;;;11.06;100.00;98490.63;4871639;29;20053;-86
2023/05/10 03:35:57;;;;;;;17.70;7.38;;;;;;;11.23;100.00;98496.19;4869631;29;20055;-85
2023/05/10 03:38:41;;;;;;;24.45;8.48;;;;;;;11.10;100.00;98503.16;4869044;29;20048;-88
2023/05/10 03:41:25;;;;;;;24.83;8.40;;;;;;;11.28;100.00;98497.16;4872300;29;20104;-87
2023/05/10 03:44:10;;;;;;;24.17;8.10;;;;;;;11.32;100.00;98494.94;4867571;29;20412;-83
2023/05/10 03:46:55;;;;;;;27.00;8.43;;;;;;;11.33;100.00;98506.22;4867363;29;20067;-86
2023/05/10 03:49:39;;;;;;;23.65;7.88;;;;;;;11.28;100.00;98507.66;4869938;29;20548;-86
2023/05/10 03:52:23;;;;;;;25.70;7.93;;;;;;;11.15;100.00;98499.88;4872011;29;20094;-85
2023/05/10 03:55:07;;;;;;;25.73;7.78;;;;;;;10.95;100.00;98494.75;4873243;29;20100;-86
2023/05/10 03:57:53;;;;;;;21.30;8.00;;;;;;;11.23;100.00;98501.44;4871948;29;20121;-85
2023/05/10 04:00:43;;;;;;;25.02;8.77;;;;;;;11.26;100.00;98501.00;4871148;29;20615;-86
2023/05/10 04:03:27;;;;;;;20.75;8.27;;;;;;;10.86;100.00;98497.59;4872383;29;20089;-86
2023/05/10 04:06:11;;;;;;;23.00;8.88;;;;;;;11.09;100.00;98496.25;4874238;29;20045;-86
2023/05/10 04:08:55;;;;;;;28.05;9.90;;;;;;;10.99;100.00;98483.59;4867007;29;20130;-85
2023/05/10 04:11:39;;;;;;;31.90;10.18;;;;;;;11.06;100.00;98496.69;4869713;29;20481;-85
2023/05/10 04:14:23;;;;;;;28.30;9.30;;;;;;;11.11;100.00;98509.19;4868060;29;20060;-84
2023/05/10 04:17:07;;;;;;;25.77;9.57;;;;;;;11.07;100.00;98498.28;4871798;29;20052;-85
2023/05/10 04:19:52;;;;;;;33.22;10.63;;;;;;;11.10;100.00;98491.81;4866861;29;20044;-83
2023/05/10 04:22:37;;;;;;;29.33;10.70;;;;;;;11.18;100.00;98503.91;4872573;29;20051;-83
2023/05/10 04:25:21;;;;;;;25.27;9.77;;;;;;;10.90;100.00;98498.00;4867651;29;20518;-87
2023/05/10 04:28:06;;;;;;;21.92;9.90;;;;;;;11.00;100.00;98503.59;4872892;29;20087;-87
2023/05/10 04:30:50;;;;;;;28.55;10.43;;;;;;;11.08;100.00;98509.63;4868794;29;20104;-87
2023/05/10 04:33:35;;;;;;;26.33;10.30;;;;;;;11.09;100.00;98500.72;4871117;29;20187;-84
2023/05/10 04:36:19;;;;;;;28.83;10.48;;;;;;;10.97;100.00;98503.22;4866606;29;20041;-86
2023/05/10 04:39:03;;;;;;;25.08;10.85;;;;;;;11.07;100.00;98490.41;4870287;29;20052;-86
2023/05/10 04:41:48;;;;;;;28.02;10.40;;;;;;;11.05;100.00;98497.69;4868031;29;20068;-85
2023/05/10 04:44:32;;;;;;;28.25;11.15;;;;;;;11.14;100.00;98498.25;4870681;29;20121;-88
2023/05/10 04:47:16;;;;;;;23.20;10.02;;;;;;;11.06;100.00;98506.41;4869302;29;20093;-85
2023/05/10 04:50:01;;;;;;;26.17;9.70;;;;;;;11.19;100.00;98514.19;4867590;29;20507;-88
2023/05/10 04:52:45;;;;;;;24.50;9.82;;;;;;;11.25;100.00;98508.09;4866206;29;20097;-86
2023/05/10 04:55:29;;;;;;;25.58;10.95;;;;;;;11.37;100.00;98513.47;4869303;29;20048;-86
2023/05/10 04:58:13;;;;;;;28.77;10.95;;;;;;;11.38;100.00;98519.53;4868479;29;20509;-87
2023/05/10 05:01:05;;;;;;;33.10;10.60;;;;;;;11.39;100.00;98529.00;4868831;29;20093;-87
2023/05/10 05:03:49;;;;;;;23.42;10.60;;;;;;;11.36;100.00;98526.81;4875153;29;20048;-87
2023/05/10 05:06:33;;;;;;;26.33;10.55;;;;;;;11.31;100.00;98524.03;4872676;29;20143;-89
2023/05/10 05:09:17;;;;;;;24.27;10.23;;;;;;;11.42;100.00;98528.63;4869894;29;20133;-88
2023/05/10 05:12:01;;;;;;;27.85;11.30;;;;;;;11.50;100.00;98528.34;4866965;29;20052;-89
2023/05/10 05:14:45;;;;;;;25.40;11.18;;;;;;;11.51;100.00;98535.22;4869227;29;20049;-86
2023/05/10 05:17:30;;;;;;;;;;;;;;;11.65;100.00;98537.75;4868606;29;20047;-86
2023/05/10 05:20:14;;;;;;;28.38;11.05;;;;;;;11.66;100.00;98548.03;4870473;29;19926;-87
2023/05/10 05:22:58;;;;;;;33.47;10.98;;;;;;;11.60;100.00;98540.22;4869696;29;20043;-88
2023/05/10 05:25:42;;;;;;;28.75;9.70;;;;;;;11.69;100.00;98549.44;4868978;29;20199;-87
2023/05/10 05:28:26;;;;;;;27.27;10.93;;;;;;;11.81;100.00;98536.41;4870470;29;20060;-86
2023/05/10 05:31:10;;;;;;;21.25;8.95;;;;;;;11.95;100.00;98552.88;4868027;29;20174;-84
2023/05/10 05:33:55;;;;;;;23.42;9.45;;;;;;;11.89;100.00;98543.22;4871519;29;20106;-84
2023/05/10 05:36:38;;;;;;;23.05;9.90;;;;;;;12.01;100.00;98559.97;4870253;29;20040;-84
2023/05/10 05:39:22;;;;;;;25.83;9.63;;;;;;;12.12;100.00;98566.34;4870915;29;20096;-86
2023/05/10 05:42:06;;;;;;;26.33;10.48;;;;;;;11.98;100.00;98569.03;4867009;29;20090;-87
2023/05/10 05:44:50;;;;;;;20.90;9.70;;;;;;;12.07;100.00;98574.88;4869629;29;20182;-85
2023/05/10 05:47:34;;;;;;;22.92;9.40;;;;;;;12.26;100.00;98567.81;4866923;29;20052;-86
2023/05/10 05:50:18;;;;;;;26.65;10.77;;;;;;;12.23;100.00;98570.09;4872696;29;20559;-84
2023/05/10 05:53:02;;;;;;;23.98;10.63;;;;;;;12.38;100.00;98573.19;4877083;29;20069;-86
2023/05/10 05:55:54;;;;;;;22.15;10.25;;;;;;;12.45;100.00;98577.56;4874748;29;20526;-85
2023/05/10 05:58:39;;;;;;;24.77;9.77;;;;;;;12.48;100.00;98574.50;4874060;29;20048;-85
2023/05/10 06:01:23;;;;;;;27.55;10.27;;;;;;;12.68;100.00;98569.81;4871703;29;20053;-86
2023/05/10 06:04:07;;;;;;;22.60;10.23;;;;;;;12.69;100.00;98581.97;4870654;29;20547;-83
2023/05/10 06:06:51;;;;;;;23.48;10.38;;;;;;;12.85;100.00;98579.75;4866216;29;20064;-85
2023/05/10 06:09:35;;;;;;;21.60;10.20;;;;;;;12.80;100.00;98566.47;4879398;29;20200;-88
2023/05/10 06:12:19;;;;;;;21.45;10.20;;;;;;;13.05;100.00;98574.25;4878480;29;20093;-86
2023/05/10 06:15:04;;;;;;;29.60;10.82;;;;;;;13.14;100.00;98578.19;4868072;29;20436;-86
2023/05/10 06:17:49;;;;;;;28.02;9.75;;;;;;;13.15;100.00;98573.72;4878622;29;20068;-84
2023/05/10 06:20:32;;;;;;;24.73;9.75;;;;;;;13.25;100.00;98581.91;4870342;29;20044;-85
2023/05/10 06:23:17;;;;;;;15.65;8.43;;;;;;;13.25;100.00;98583.72;4870736;29;20068;-83
2023/05/10 06:26:01;;;;;;;20.85;10.10;;;;;;;13.36;100.00;98580.34;4868473;29;20093;-82
2023/05/10 06:28:45;;;;;;;20.75;9.57;;;;;;;13.50;100.00;98580.97;4873215;29;20056;-82
2023/05/10 06:31:29;;;;;;;20.42;8.75;;;;;;;13.60;100.00;98580.44;4870385;29;20181;-82
2023/05/10 06:34:13;;;;;;;18.48;7.88;;;;;;;13.77;100.00;98585.88;4873803;29;20056;-86
2023/05/10 06:36:57;;;;;;;16.05;7.65;;;;;;;13.74;100.00;98596.84;4878571;29;20051;-80
2023/05/10 06:39:41;;;;;;;20.58;8.30;;;;;;;13.89;100.00;98591.16;4876687;29;20071;-82
2023/05/10 06:42:25;;;;;;;23.60;8.75;;;;;;;13.99;100.00;98594.03;4874412;29;20036;-81
2023/05/10 06:45:10;;;;;;;17.55;8.15;;;;;;;14.13;100.00;98599.09;4869179;29;20106;-81
2023/05/10 06:47:53;;;;;;;16.13;7.28;;;;;;;14.19;100.00;98605.31;4872524;29;20519;-80
2023/05/10 06:50:37;;;;;;;15.55;6.55;;;;;;;14.42;100.00;98602.66;4869115;29;20102;-84
2023/05/10 06:53:21;;;;;;;12.30;7.25;;;;;;;14.48;100.00;98608.88;4873586;29;20135;-85
2023/05/10 06:56:06;;;;;;;13.02;6.45;;;;;;;14.56;100.00;98610.38;4867331;29;20098;-84
2023/05/10 06:58:50;;;;;;;14.48;7.80;;;;;;;14.63;100.00;98612.84;4870499;29;20091;-84
2023/05/10 07:01:35;;;;;;;13.55;7.38;;;;;;;14.61;100.00;98605.19;4863837;29;20051;-84
2023/05/10 07:04:19;;;;;;;12.63;6.85;;;;;;;14.62;100.00;98596.22;4871118;29;20092;-85
2023/05/10 07:07:03;;;;;;;12.88;6.50;;;;;;;14.65;100.00;98592.31;4868019;29;20045;-84
2023/05/10 07:09:47;;;;;;;14.00;6.10;;;;;;;14.65;100.00;98597.63;4870620;29;20044;-84
2023/05/10 07:12:31;;;;;;;14.10;6.65;;;;;;;14.76;100.00;98591.50;4872621;29;20452;-82
2023/05/10 07:15:15;;;;;;;14.90;6.57;;;;;;;14.92;100.00;98605.03;4869325;29;20115;-83
2023/05/10 07:18:00;;;;;;;12.25;5.78;;;;;;;14.86;100.00;98606.78;4867429;29;20080;-82
2023/05/10 07:20:44;;;;;;;14.35;6.00;;;;;;;15.09;100.00;98610.38;4868952;29;20100;-84
2023/05/10 07:23:28;;;;;;;16.45;6.22;;;;;;;15.15;100.00;98598.91;4874882;29;20113;-85
2023/05/10 07:26:12;;;;;;;12.27;5.93;;;;;;;15.19;100.00;98610.59;4868528;29;20051;-85
2023/05/10 07:28:56;;;;;;;14.30;6.38;;;;;;;15.63;100.00;98609.25;4869604;29;20177;-84
2023/05/10 07:31:42;;;;;;;14.40;6.00;;;;;;;15.90;100.00;98606.03;4869074;29;20056;-81
2023/05/10 07:34:26;;;;;;;16.85;6.25;;;;;;;15.97;100.00;98606.69;4874087;29;20120;-80
2023/05/10 07:37:11;;;;;;;12.20;5.43;;;;;;;16.52;100.00;98593.72;4866320;29;20041;-81
2023/05/10 07:39:55;;;;;;;13.60;5.15;;;;;;;16.97;100.00;98600.63;4871717;29;20052;-79
2023/05/10 07:42:40;;;;;;;11.90;4.50;;;;;;;17.44;100.00;98592.41;4871636;29;20132;-78
2023/05/10 07:45:24;;;;;;;8.38;4.63;;;;;;;18.08;100.00;98590.81;4868828;29;20506;-79
2023/05/10 07:48:08;;;;;;;7.53;4.28;;;;;;;17.48;100.00;98596.94;4868922;29;20100;-79
2023/05/10 07:50:52;;;;;;;13.23;5.15;;;;;;;17.38;100.00;98596.84;4867295;29;20097;-79
2023/05/10 07:53:37;;;;;;;8.95;4.85;;;;;;;17.25;100.00;98608.66;4868134;29;20052;-79
2023/05/10 07:56:29;;;;;;;11.60;5.25;;;;;;;17.21;100.00;98616.28;4867866;29;20088;-79
2023/05/10 07:59:17;;;;;;;8.75;5.45;;;;;;;17.64;100.00;98610.34;4866766;29;20481;-80
2023/05/10 08:02:01;;;;;;;11.73;5.47;;;;;;;17.93;100.00;98602.09;4867864;29;20150;-80
2023/05/10 08:04:45;;;;;;;10.75;5.97;;;;;;;18.12;100.00;98598.03;4867483;29;20048;-79
2023/05/10 08:07:29;;;;;;;10.80;5.97;;;;;;;18.19;100.00;98607.63;4867069;29;20071;-80
2023/05/10 08:10:13;;;;;;;9.90;6.13;;;;;;;17.88;100.00;98600.22;4868679;29;20260;-80
2023/05/10 08:12:58;;;;;;;12.38;7.45;;;;;;;17.67;100.00;98612.50;4869146;29;20056;-79
2023/05/10 08:15:42;;;;;;;13.57;7.82;;;;;;;17.65;100.00;98615.41;4868748;29;20068;-79
2023/05/10 08:18:26;;;;;;;12.23;7.55;;;;;;;17.36;100.00;98620.16;4870077;29;20099;-77
2023/05/10 08:21:11;;;;;;;13.90;7.43;;;;;;;17.75;100.00;98613.88;4870479;29;20053;-77
2023/05/10 08:23:55;;;;;;;13.98;6.85;;;;;;;17.72;100.00;98609.91;4867685;29;20121;-77
2023/05/10 08:26:39;;;;;;;11.77;6.15;;;;;;;17.53;100.00;98606.81;4871487;29;20064;-77
2023/05/10 08:29:23;;;;;;;10.52;7.32;;;;;;;17.39;100.00;98614.38;4869400;29;20055;-76
2023/05/10 08:32:07;;;;;;;12.38;9.55;;;;;;;17.18;100.00;98606.19;4865706;29;20404;-77
2023/05/10 08:34:51;;;;;;;13.07;8.23;;;;;;;16.95;100.00;98608.03;4869410;29;20104;-80
2023/05/10 08:37:35;;;;;;;14.00;6.68;;;;;;;16.87;100.00;98613.75;4868422;29;20108;-80
2023/05/10 08:40:20;;;;;;;8.40;4.88;;;;;;;16.95;100.00;98617.81;4865845;29;20093;-79
2023/05/10 08:43:07;;;;;;;9.93;5.38;;;;;;;17.24;100.00;98615.78;4866081;29;20052;-80
2023/05/10 08:45:53;;;;;;;11.88;6.13;;;;;;;17.50;100.00;98605.47;4867285;29;20415;-81
2023/05/10 08:48:38;;;;;;;8.55;4.47;;;;;;;17.76;99.01;98599.56;4867933;29;20076;-81
2023/05/10 08:51:26;;;;;;;7.90;3.47;;;;;;;18.10;94.62;98600.16;4865966;29;20079;-81
2023/05/10 08:54:10;;;;;;;6.68;3.80;;;;;;;18.41;93.62;98600.31;4864017;29;20056;-81
2023/05/10 08:56:54;;;;;;;8.05;3.53;;;;;;;18.83;92.52;98595.22;4866151;29;20040;-82
2023/05/10 08:59:39;;;;;;;6.53;3.78;;;;;;;19.06;90.67;98598.50;4867922;29;20056;-81
2023/05/10 09:02:24;;;;;;;11.02;4.03;;;;;;;19.81;88.64;98603.44;4867750;29;20068;-81
2023/05/10 09:05:10;;;;;;;6.85;3.15;;;;;;;20.16;84.16;98592.25;4869632;29;20057;-82
2023/05/10 09:07:54;;;;;;;9.15;3.40;;;;;;;19.66;86.58;98619.41;4866019;29;20079;-81
2023/05/10 09:10:40;;;;;;;6.22;2.80;;;;;;;19.72;84.97;98607.69;4865149;29;20511;-81
2023/05/10 09:13:24;;;;;;;5.65;2.88;;;;;;;19.81;83.92;98600.75;4870800;29;20047;-82
2023/05/10 09:16:08;;;;;;;6.65;2.67;;;;;;;19.76;83.97;98606.09;4865972;29;20040;-82
2023/05/10 09:18:53;;;;;;;3.30;2.28;;;;;;;20.23;83.06;98603.44;4866036;29;20555;-81
2023/05/10 09:21:38;;;;;;;6.55;2.72;;;;;;;20.48;82.07;98610.56;4874584;29;20100;-82
2023/05/10 09:24:26;;;;;;;5.47;3.03;;;;;;;20.56;82.54;98606.56;4875270;29;20071;-82
2023/05/10 09:27:10;;;;;;;5.43;3.47;;;;;;;20.71;82.12;98608.38;4872696;29;22044;-82
2023/05/10 09:29:55;;;;;;;8.10;4.03;;;;;;;20.30;81.36;98611.16;4869805;29;20569;-82
2023/05/10 09:32:47;;;;;;;6.70;4.28;;;;;;;19.50;83.97;98618.59;4876146;29;20048;-82
2023/05/10 09:35:33;;;;;;;5.88;5.03;;;;;;;19.30;84.88;98620.13;4871075;29;20117;-82
2023/05/10 09:38:17;;;;;;;10.57;6.60;;;;;;;19.05;86.17;98628.81;4870502;29;20126;-82
2023/05/10 09:41:02;;;;;;;8.60;5.95;;;;;;;18.91;87.16;98621.31;4869492;29;20195;-83
2023/05/10 09:43:47;;;;;;;7.15;4.10;;;;;;;19.18;88.02;98625.69;4870559;29;20384;-83
2023/05/10 09:46:35;;;;;;;8.57;4.20;;;;;;;19.61;87.04;98624.72;4874471;29;20048;-82
2023/05/10 09:49:21;;;;;;;9.38;4.40;;;;;;;19.83;86.09;98616.50;4866038;29;20047;-82
2023/05/10 09:52:07;;;;;;;8.77;4.97;;;;;;;19.48;85.82;98616.19;4871465;29;20056;-82
2023/05/10 09:54:54;;;;;;;8.25;3.70;;;;;;;19.31;86.32;98620.94;4867078;29;20137;-82
2023/05/10 09:57:38;;;;;;;10.77;3.85;;;;;;;19.30;86.19;98604.16;4873937;29;20093;-82
2023/05/10 10:00:23;;;;;;;6.57;4.00;;;;;;;19.17;87.17;98616.13;4871781;29;20043;-82
2023/05/10 10:03:13;;;;;;;7.22;4.07;;;;;;;19.54;86.82;98617.78;4871635;29;20104;-83
2023/05/10 10:05:57;;;;;;;10.02;4.43;;;;;;;19.27;85.94;98608.19;4872902;29;20095;-82
2023/05/10 10:08:41;;;;;;;10.65;3.90;;;;;;;19.10;87.46;98613.69;4873555;29;20100;-82
2023/05/10 10:11:25;;;;;;;4.68;3.38;;;;;;;19.17;86.92;98616.13;4870262;29;20048;-82
2023/05/10 10:14:12;;;;;;;4.93;3.15;;;;;;;19.15;86.22;98609.44;4873302;29;20422;-82
2023/05/10 10:16:56;;;;;;;8.63;3.42;;;;;;;19.59;85.91;98614.34;4870776;29;20506;-82
2023/05/10 10:19:41;;;;;;;4.18;3.25;;;;;;;20.01;84.56;98614.38;4871096;29;20424;-82
2023/05/10 10:22:25;;;;;;;6.18;3.05;;;;;;;20.82;81.31;98614.50;4870693;29;20044;-82
2023/05/10 10:25:15;;;;;;;6.70;3.20;;;;;;;20.75;80.85;98611.31;4871256;29;20044;-81
2023/05/10 10:28:23;;;;;;;6.80;3.38;;;;;;;20.44;81.93;98606.06;4870920;29;20093;-82
2023/05/10 10:31:31;;;;;;;6.43;3.38;;;;;;;20.59;81.43;98599.91;4871827;29;20101;-81
2023/05/10 10:34:29;;;;;;;4.10;3.60;;;;;;;19.75;82.57;98599.19;4872025;29;20096;-81
2023/05/10 10:37:13;;;;;;;7.10;4.05;;;;;;;20.16;81.95;98597.59;4871872;29;20055;-81
2023/05/10 10:39:57;;;;;;;4.63;3.10;;;;;;;20.54;80.84;98598.84;4880077;29;20108;-81
2023/05/10 10:42:49;;;;;;;3.97;3.00;;;;;;;20.56;79.35;98590.56;4871732;29;20538;-81
2023/05/10 10:45:33;;;;;;;5.13;3.20;;;;;;;20.75;80.05;98598.78;4888618;29;20043;-81
2023/05/10 10:48:22;;;;;;;5.07;3.10;;;;;;;20.62;80.38;98604.69;4872622;29;20045;-80
2023/05/10 10:51:07;;;;;;;7.82;3.40;;;;;;;20.40;79.98;98598.59;4872909;29;20044;-83
2023/05/10 10:53:50;;;;;;;5.70;3.45;;;;;;;20.40;79.96;98601.25;4870434;29;20466;-81
2023/05/10 10:56:34;;;;;;;6.20;3.42;;;;;;;20.41;80.86;98594.09;4871445;29;20052;-81
2023/05/10 10:59:27;;;;;;;4.10;3.40;;;;;;;20.48;81.36;98599.13;4872467;29;20407;-81
2023/05/10 11:02:34;;;;;;;5.28;3.88;;;;;;;20.51;81.41;98598.59;4867534;29;20055;-80
2023/05/10 11:05:25;;;;;;;6.88;3.65;;;;;;;20.60;81.25;98598.81;4869278;29;20197;-83
2023/05/10 11:08:21;;;;;;;6.80;3.58;;;;;;;20.36;81.65;98592.22;4872781;29;20408;-83
2023/05/10 11:11:07;;;;;;;8.98;3.42;;;;;;;20.21;83.45;98600.25;4871260;29;20075;-82
2023/05/10 11:13:51;;;;;;;6.35;3.53;;;;;;;20.79;83.82;98601.69;4865907;29;20113;-82
2023/05/10 11:16:44;;;;;;;7.88;3.95;;;;;;;21.32;81.95;98603.06;4871432;29;20063;-82
2023/05/10 11:19:28;;;;;;;6.90;3.25;;;;;;;21.44;79.39;98586.69;4872592;29;20036;-83
2023/05/10 11:22:13;;;;;;;3.80;2.88;;;;;;;22.13;78.24;98596.59;4867960;29;20039;-82
2023/05/10 11:24:58;;;;;;;4.25;2.80;;;;;;;22.77;78.21;98588.44;4866981;29;20118;-82
2023/05/10 11:27:42;;;;;;;3.22;2.80;;;;;;;22.91;73.20;98594.69;4868130;29;20100;-82
2023/05/10 11:30:27;;;;;;;2.70;2.50;;;;;;;22.46;74.23;98578.09;4867618;29;20043;-81
2023/05/10 11:33:16;;;;;;;4.07;2.95;;;;;;;22.24;75.85;98580.16;4868077;29;20052;-81
2023/05/10 11:36:00;;;;;;;2.60;2.28;;;;;;;22.35;75.74;98580.06;4868301;29;20052;-82
2023/05/10 11:38:45;;;;;;;2.58;2.00;;;;;;;22.70;77.55;98579.97;4873195;29;20407;-81
2023/05/10 11:41:30;;;;;;;1.88;1.75;;;;;;;22.87;78.22;98566.91;4870849;29;20047;-81
2023/05/10 11:44:15;;;;;;;3.63;3.03;;;;;;;22.90;74.31;98566.34;4865635;29;20078;-81
2023/05/10 11:47:00;;;;;;;2.83;1.85;;;;;;;22.59;76.32;98561.38;4870067;29;20089;-82
2023/05/10 11:49:45;;;;;;;2.95;2.42;;;;;;;22.81;72.86;98571.53;4870684;29;20384;-81
2023/05/10 11:52:29;;;;;;;2.70;1.92;;;;;;;22.91;72.54;98567.94;4869638;29;20044;-81
2023/05/10 11:55:13;;;;;;;1.85;1.75;;;;;;;22.92;69.65;98572.19;4866792;29;20498;-81
2023/05/10 11:58:02;;;;;;;3.17;1.90;;;;;;;22.45;71.66;98569.25;4870965;29;20074;-81
2023/05/10 12:00:46;;;;;;;2.30;1.90;;;;;;;22.02;72.38;98569.97;4867868;29;20411;-81
2023/05/10 12:03:31;;;;;;;3.63;2.33;;;;;;;21.29;73.63;98574.25;4874485;29;20096;-82
2023/05/10 12:06:17;;;;;;;3.17;2.13;;;;;;;20.73;74.87;98581.44;4870567;29;20043;-81
2023/05/10 12:09:05;;;;;;;4.53;2.92;;;;;;;20.15;76.68;98578.16;4866706;29;20097;-81
2023/05/10 12:11:56;;;;;;;3.85;2.88;;;;;;;20.03;78.72;98582.94;4871334;29;20044;-81
2023/05/10 12:14:40;;;;;;;3.40;3.00;;;;;;;19.78;81.40;98582.66;4867246;29;20060;-81
2023/05/10 12:17:28;;;;;;;2.47;1.88;;;;;;;19.76;82.16;98595.44;4866242;29;20052;-81
2023/05/10 12:20:24;;;;;;;1.67;1.58;;;;;;;19.00;81.97;98603.03;4866731;29;20202;-80
2023/05/10 12:23:09;;;;;;;2.00;1.50;;;;;;;18.67;81.54;98616.44;4867394;29;20048;-81
2023/05/10 12:25:53;;;;;;;3.33;1.27;;;;;;;18.23;80.37;98603.41;4870237;29;20051;-81
2023/05/10 12:28:39;;;;;;;2.30;2.00;;;;;;;18.02;83.75;98613.09;4867159;29;20079;-80
2023/05/10 12:31:23;;;;;;;1.60;1.50;;;;;;;17.81;87.46;98612.91;4872962;29;20055;-80
2023/05/10 12:34:07;;;;;;;1.95;1.30;;;;;;;17.64;100.00;98613.81;4864811;29;20063;-81
2023/05/10 12:36:53;;;;;;;2.17;1.25;;;;;;;18.12;100.00;98618.47;4869143;29;20048;-81
2023/05/10 12:39:42;;;;;;;1.50;1.38;;;;;;;17.79;100.00;98615.78;4866313;29;20124;-81
2023/05/10 12:42:26;;;;;;;1.38;1.15;;;;;;;18.30;100.00;98608.50;4869083;29;20511;-81
2023/05/10 12:45:11;;;;;;;2.25;1.30;;;;;;;18.91;100.00;98609.88;4870371;29;20510;-82
2023/05/10 12:47:55;;;;;;;1.50;1.27;;;;;;;19.46;100.00;98598.88;4868352;29;20052;-82
2023/05/10 12:50:42;;;;;;;1.52;1.40;;;;;;;19.46;100.00;98599.69;4869331;29;20056;-83